Terminal Aerodrome Forecast
Issued by NWS

Home | Current Version | Previous Version | Text Only | Print | Product List | Glossary On
Versions: 1 2 3 4 5 6 7 8 9 10 11 12 13 14 15 16 17 18 19 20 21 22 23 24 25 26
829
FTUS41 KBUF 271120
TAFIAG
TAF
KIAG 271120Z 2712/2812 22010KT 4SM -SHRA VCTS OVC025CB
     FM271400 22016G26KT 4SM -SHRA VCTS OVC025CB
     FM271700 22018G27KT P6SM VCSH BKN050
     FM272200 22015G23KT P6SM VCSH BKN050
     FM280000 20009KT P6SM VCSH BKN050
     FM280300 18007KT P6SM BKN060
     FM280600 16005KT P6SM SCT250=

USA.gov is the U.S. government's official web portal to all federal, state and local government web resources and services.